Terminal Aerodrome Forecast
Issued by NWS

Current Version | Previous Version | Graphics & Text | Print | Product List | Glossary On
Versions: 1 2 3 4 5 6 7 8 9 10 11 12 13 14 15 16 17 18 19 20 21 22 23 24 25 26 27
774
FTUS41 KILN 290542 CCA
TAFLUK
TAF COR
KLUK 290542Z 2906/3006 00000KT 4SM BR BKN010
     FM290800 00000KT 2SM BR OVC007
      TEMPO 2908/2912 1/2SM FG
     FM291500 03004KT 4SM BR OVC014
     FM291700 03004KT P6SM VCSH OVC025
     FM291900 VRB04KT P6SM VCSH SCT028 BKN045
      AMD NOT SKED=

USA.gov is the U.S. government's official web portal to all federal, state and local government web resources and services.